Time;durP1;ratioP1;P1;durP2;ratioP2;P2;SDS_P1;SDS_P2;PMS_P1;PMS_P2;Temp;Humidity;BMP_temperature;BMP_pressure;BME280_temperature;BME280_humidity;BME280_pressure;Samples;Min_cycle;Max_cycle;Signal;HPM_P1;HPM_P2
2022/05/23 00:02:03;;;;;;;;;15.00;14.00;;;;;23.05;39.37;100742.73;110192;1264;21512;-48
2022/05/23 00:04:30;;;;;;;;;14.00;14.00;;;;;23.05;39.47;100742.69;110238;1264;19698;-48
2022/05/23 00:06:58;;;;;;;;;15.33;14.00;;;;;23.05;39.34;100743.79;110253;1264;18903;-48
2022/05/23 00:09:25;;;;;;;;;16.67;15.00;;;;;23.05;39.18;100741.23;110271;1264;18788;-49
2022/05/23 00:11:52;;;;;;;;;14.50;14.50;;;;;23.05;39.25;100741.64;110208;1265;21361;-47
2022/05/23 00:14:19;;;;;;;;;16.00;14.50;;;;;23.05;39.42;100741.47;110280;1264;18752;-48
2022/05/23 00:16:46;;;;;;;;;15.67;14.00;;;;;23.05;39.19;100739.41;110247;1264;18906;-48
2022/05/23 00:19:14;;;;;;;;;16.00;14.00;;;;;23.05;39.24;100737.60;110207;1264;19649;-49
2022/05/23 00:21:41;;;;;;;;;14.67;14.67;;;;;23.05;39.14;100738.02;110206;1264;18879;-48
2022/05/23 00:24:09;;;;;;;;;18.33;17.00;;;;;23.05;39.31;100741.60;110261;1264;18716;-46
2022/05/23 00:26:36;;;;;;;;;16.00;15.00;;;;;23.06;39.25;100745.07;110174;1264;19567;-42
2022/05/23 00:29:03;;;;;;;;;15.00;14.00;;;;;23.06;39.06;100742.80;110234;1263;20245;-46
2022/05/23 00:31:30;;;;;;;;;14.00;14.00;;;;;23.06;39.19;100743.26;110265;1264;22799;-48
2022/05/23 00:36:42;;;;;;;;;17.00;15.67;;;;;23.05;39.16;100745.98;110253;1264;18724;-47
2022/05/23 00:39:10;;;;;;;;;17.00;16.00;;;;;23.05;39.16;100746.19;110253;1264;21580;-48
2022/05/23 00:44:22;;;;;;;;;16.00;15.00;;;;;23.04;39.01;100748.45;110226;1264;18884;-48
2022/05/23 00:46:50;;;;;;;;;11.00;11.00;;;;;23.04;39.01;100748.23;110228;1264;22185;-48
2022/05/23 00:49:17;;;;;;;;;15.67;15.00;;;;;23.04;39.07;100747.40;110231;1264;19507;-48
2022/05/23 00:51:44;;;;;;;;;15.00;14.00;;;;;23.03;39.14;100749.49;110236;1264;18775;-49
2022/05/23 00:54:11;;;;;;;;;17.00;15.00;;;;;23.03;38.97;100746.17;110281;1264;18816;-49
2022/05/23 00:56:38;;;;;;;;;15.00;14.67;;;;;23.03;39.16;100747.52;110236;1264;20472;-49
2022/05/23 00:59:06;;;;;;;;;16.00;15.00;;;;;23.03;39.02;100749.49;110255;1264;18847;-49
2022/05/23 01:01:33;;;;;;;;;16.00;14.00;;;;;23.04;38.98;100751.09;110259;1263;18907;-48
2022/05/23 01:04:00;;;;;;;;;16.50;14.50;;;;;23.04;38.96;100752.70;110280;1264;19501;-49
2022/05/23 01:06:27;;;;;;;;;17.67;15.67;;;;;23.04;39.04;100756.86;110323;1264;22189;-48
2022/05/23 01:08:55;;;;;;;;;19.00;16.50;;;;;23.04;38.96;100758.84;110265;1264;20115;-46
2022/05/23 01:11:22;;;;;;;;;16.00;15.00;;;;;23.04;38.86;100761.23;110144;1263;23105;-47
2022/05/23 01:13:49;;;;;;;;;18.00;16.00;;;;;23.03;38.70;100756.81;110247;1263;18789;-47
2022/05/23 01:16:16;;;;;;;;;14.50;14.00;;;;;23.03;38.84;100760.05;110260;1262;18923;-53
2022/05/23 01:18:44;;;;;;;;;13.00;12.33;;;;;23.04;38.87;100758.13;110240;1264;22996;-52
2022/05/23 01:21:11;;;;;;;;;16.00;14.67;;;;;23.04;38.94;100758.75;110305;1263;18821;-47
2022/05/23 01:23:38;;;;;;;;;14.50;14.00;;;;;23.03;38.95;100757.31;110267;1263;22391;-48
2022/05/23 01:26:05;;;;;;;;;16.00;16.00;;;;;23.03;38.80;100756.13;110280;1263;20506;-49
2022/05/23 01:28:33;;;;;;;;;19.00;15.00;;;;;23.03;38.89;100753.88;110259;1264;22708;-48
2022/05/23 01:31:00;;;;;;;;;14.00;13.00;;;;;23.03;38.93;100750.96;110286;1263;18809;-49
2022/05/23 01:33:27;;;;;;;;;12.33;10.67;;;;;23.05;38.62;100749.67;110311;1262;19470;-49
2022/05/23 01:35:57;;;;;;;;;15.33;14.00;;;;;23.06;38.59;100750.36;110271;1262;18721;-48
2022/05/23 01:38:24;;;;;;;;;18.00;14.00;;;;;23.06;38.67;100747.88;110295;1262;18860;-48
2022/05/23 01:40:51;;;;;;;;;15.00;14.00;;;;;23.05;38.54;100747.45;110263;1264;19558;-47
2022/05/23 01:43:18;;;;;;;;;15.50;14.00;;;;;23.04;38.55;100746.81;110276;1262;18845;-48
2022/05/23 01:45:46;;;;;;;;;18.50;15.50;;;;;23.04;38.55;100746.09;110349;1261;22351;-47
2022/05/23 01:48:13;;;;;;;;;15.00;13.00;;;;;23.05;38.62;100750.02;110308;1262;19546;-48
2022/05/23 01:50:40;;;;;;;;;13.33;11.00;;;;;23.04;38.38;100745.04;110249;1262;20272;-47
2022/05/23 01:53:07;;;;;;;;;15.00;14.33;;;;;23.04;38.53;100745.59;110269;1262;18810;-46
2022/05/23 01:55:34;;;;;;;;;16.33;14.67;;;;;23.05;38.46;100746.93;110282;1262;20065;-45
2022/05/23 01:58:02;;;;;;;;;18.00;13.00;;;;;23.05;38.53;100746.02;110220;1262;19029;-44
2022/05/23 02:03:14;;;;;;;;;18.00;15.67;;;;;23.04;38.26;100745.51;110342;1262;22835;-48
2022/05/23 02:05:42;;;;;;;;;18.00;14.50;;;;;23.04;38.31;100739.02;110327;1262;18784;-46
2022/05/23 02:08:09;;;;;;;;;13.67;12.33;;;;;23.04;38.34;100738.61;110303;1261;18992;-44
2022/05/23 02:10:36;;;;;;;;;14.00;13.67;;;;;23.04;38.27;100736.63;110304;1262;19556;-44
2022/05/23 02:13:03;;;;;;;;;18.00;15.00;;;;;23.04;38.18;100735.49;110298;1262;20125;-48
2022/05/23 02:15:32;;;;;;;;;13.67;13.00;;;;;23.03;38.30;100732.75;110285;1264;22364;-47
2022/05/23 02:18:00;;;;;;;;;13.67;13.33;;;;;23.03;38.22;100730.52;110345;1262;19519;-45
2022/05/23 02:20:27;;;;;;;;;15.67;14.33;;;;;23.03;38.16;100729.81;110295;1262;18808;-47
2022/05/23 02:22:54;;;;;;;;;19.67;14.00;;;;;23.03;38.16;100729.80;110291;1262;19146;-48
2022/05/23 02:25:21;;;;;;;;;14.00;13.00;;;;;23.03;38.14;100724.89;110279;1262;19506;-46
2022/05/23 02:27:50;;;;;;;;;14.33;14.00;;;;;23.04;38.04;100723.96;110203;1262;20337;-45
2022/05/23 02:30:17;;;;;;;;;13.33;11.67;;;;;23.04;38.12;100724.27;110288;1264;22106;-50
2022/05/23 02:32:45;;;;;;;;;13.00;13.00;;;;;23.04;38.08;100719.84;110188;1264;19700;-47
2022/05/23 02:35:12;;;;;;;;;13.00;13.00;;;;;23.05;37.94;100716.52;110184;1264;18710;-47
2022/05/23 02:37:40;;;;;;;;;14.00;11.67;;;;;23.05;37.99;100718.47;110290;1264;18891;-45
2022/05/23 02:40:07;;;;;;;;;15.33;14.67;;;;;23.05;37.99;100720.98;110277;1262;23299;-48
2022/05/23 02:42:34;;;;;;;;;14.50;13.00;;;;;23.05;37.97;100718.51;110273;1264;19362;-45
2022/05/23 02:45:02;;;;;;;;;15.33;14.00;;;;;23.05;37.79;100721.58;110272;1264;19196;-49
2022/05/23 02:47:29;;;;;;;;;13.00;12.00;;;;;23.05;37.84;100717.88;110297;1263;19595;-48
2022/05/23 02:49:57;;;;;;;;;16.00;14.00;;;;;23.04;37.89;100721.15;110289;1264;18753;-47
2022/05/23 02:52:24;;;;;;;;;13.00;13.00;;;;;23.03;37.74;100719.59;110280;1264;18779;-49
2022/05/23 02:54:51;;;;;;;;;13.00;12.33;;;;;23.04;37.73;100723.00;110181;1262;19569;-45
2022/05/23 02:57:18;;;;;;;;;11.00;10.67;;;;;23.03;37.65;100722.32;110285;1264;20800;-46
2022/05/23 02:59:46;;;;;;;;;16.00;15.00;;;;;23.04;37.72;100722.29;110282;1263;19686;-46
2022/05/23 03:04:58;;;;;;;;;13.67;13.00;;;;;23.03;37.59;100724.89;110258;1264;22696;-48
2022/05/23 03:07:25;;;;;;;;;15.00;11.00;;;;;23.03;37.64;100723.88;110280;1264;21753;-47
2022/05/23 03:09:52;;;;;;;;;14.00;11.67;;;;;23.03;37.60;100729.60;110298;1264;19741;-49
2022/05/23 03:12:20;;;;;;;;;13.00;13.00;;;;;23.03;37.61;100729.09;110334;1264;22881;-51
2022/05/23 03:14:47;;;;;;;;;14.00;13.00;;;;;23.03;37.60;100725.48;110273;1264;18897;-48
2022/05/23 03:17:14;;;;;;;;;11.67;11.67;;;;;23.03;37.57;100730.06;110269;1264;21741;-46
2022/05/23 03:19:41;;;;;;;;;11.00;10.67;;;;;23.03;37.68;100729.14;110299;1262;19037;-48
2022/05/23 03:27:39;;;;;;;;;12.33;11.00;;;;;23.03;37.40;100726.61;110246;1264;18715;-48
2022/05/23 03:30:06;;;;;;;;;13.67;13.00;;;;;23.03;37.34;100726.23;110280;1264;18860;-49
2022/05/23 03:32:34;;;;;;;;;13.00;11.67;;;;;23.03;37.44;100724.93;110271;1264;22144;-47
2022/05/23 03:35:01;;;;;;;;;13.00;11.67;;;;;23.04;37.36;100729.14;110288;1264;18799;-47
2022/05/23 03:37:28;;;;;;;;;13.67;12.67;;;;;23.03;37.45;100734.39;110280;1264;18853;-48
2022/05/23 03:39:56;;;;;;;;;14.00;13.00;;;;;23.03;37.36;100738.81;110264;1264;20884;-48
2022/05/23 03:42:23;;;;;;;;;16.00;13.00;;;;;23.03;37.36;100734.02;110325;1264;18886;-47
2022/05/23 03:44:50;;;;;;;;;13.00;11.00;;;;;23.03;37.46;100738.27;110264;1264;18926;-47
2022/05/23 03:47:18;;;;;;;;;13.67;13.00;;;;;23.03;37.31;100735.61;110268;1264;19733;-47
2022/05/23 03:49:45;;;;;;;;;14.00;13.00;;;;;23.04;37.30;100732.26;110301;1264;18873;-48
2022/05/23 03:52:13;;;;;;;;;14.33;11.67;;;;;23.04;37.34;100727.95;110291;1264;22537;-48
2022/05/23 03:54:40;;;;;;;;;11.67;11.00;;;;;23.04;37.42;100726.99;110274;1264;19614;-48
2022/05/23 03:57:07;;;;;;;;;10.00;10.00;;;;;23.03;37.45;100727.24;110284;1264;19164;-44
2022/05/23 03:59:36;;;;;;;;;11.00;11.00;;;;;23.04;37.38;100723.33;110283;1262;18842;-49
2022/05/23 04:02:04;;;;;;;;;12.33;12.33;;;;;23.05;37.39;100728.17;110190;1264;22323;-48
2022/05/23 04:04:31;;;;;;;;;13.67;11.00;;;;;23.04;37.22;100729.02;110222;1264;22231;-48
2022/05/23 04:06:59;;;;;;;;;14.67;13.00;;;;;23.04;37.29;100723.75;110210;1265;18754;-48
2022/05/23 04:09:26;;;;;;;;;12.00;11.67;;;;;23.04;37.32;100726.31;110284;1264;19563;-48
2022/05/23 04:11:54;;;;;;;;;14.00;13.00;;;;;23.04;37.25;100726.20;110239;1264;23377;-47
2022/05/23 04:14:21;;;;;;;;;13.33;13.33;;;;;23.04;37.25;100729.52;110248;1264;20466;-50
2022/05/23 04:16:48;;;;;;;;;13.00;11.00;;;;;23.04;37.32;100727.11;110245;1264;19540;-48
2022/05/23 04:19:16;;;;;;;;;12.33;11.00;;;;;23.04;37.33;100722.55;110219;1264;18860;-49
2022/05/23 04:21:43;;;;;;;;;13.00;11.00;;;;;23.04;37.47;100724.64;110235;1264;19511;-47
2022/05/23 04:24:10;;;;;;;;;11.00;11.00;;;;;23.05;37.50;100730.91;110257;1264;19809;-48
2022/05/23 04:26:37;;;;;;;;;14.00;13.00;;;;;23.05;37.37;100733.40;110263;1264;22980;-47
2022/05/23 04:29:06;;;;;;;;;14.00;11.00;;;;;23.05;37.43;100737.35;110268;1264;18837;-48
2022/05/23 04:31:33;;;;;;;;;13.67;13.33;;;;;23.05;37.34;100739.91;110292;1264;19468;-49
2022/05/23 04:36:46;;;;;;;;;11.33;10.67;;;;;23.05;37.32;100737.23;110259;1264;18976;-49
2022/05/23 04:39:13;;;;;;;;;13.00;10.33;;;;;23.05;37.42;100732.67;110301;1264;19483;-48
2022/05/23 04:41:40;;;;;;;;;12.00;10.50;;;;;23.06;37.35;100734.34;110211;1264;18755;-47
2022/05/23 04:44:08;;;;;;;;;13.67;13.00;;;;;23.07;37.50;100734.42;110281;1264;20180;-45
2022/05/23 04:46:35;;;;;;;;;13.33;13.00;;;;;23.07;37.45;100736.98;110303;1264;19535;-48
2022/05/23 04:51:47;;;;;;;;;13.50;12.00;;;;;23.09;37.41;100742.41;110228;1264;19959;-51
2022/05/23 04:54:14;;;;;;;;;13.00;13.00;;;;;23.10;37.35;100742.67;110248;1264;19647;-46
2022/05/23 04:56:41;;;;;;;;;16.00;12.33;;;;;23.06;37.21;100744.19;110223;1264;19020;-47
2022/05/23 04:59:09;;;;;;;;;11.00;11.00;;;;;22.99;37.30;100740.60;110234;1264;19086;-49
2022/05/23 05:01:36;;;;;;;;;12.00;12.00;;;;;22.93;36.80;100741.41;110284;1264;19788;-49
2022/05/23 05:04:03;;;;;;;;;12.33;10.00;;;;;22.90;36.80;100741.72;110200;1264;18847;-48
2022/05/23 05:06:30;;;;;;;;;13.00;11.67;;;;;22.85;37.20;100737.33;110269;1263;19140;-49
2022/05/23 05:08:58;;;;;;;;;15.00;13.00;;;;;22.83;37.25;100733.41;110231;1264;19518;-46
2022/05/23 05:11:25;;;;;;;;;13.00;11.67;;;;;22.81;36.58;100732.77;110152;1265;18889;-49
2022/05/23 05:13:52;;;;;;;;;14.00;13.50;;;;;22.80;36.53;100730.74;110215;1264;18800;-50
2022/05/23 05:16:23;;;;;;;;;13.00;13.00;;;;;22.81;36.22;100732.94;110121;1265;19889;-49
2022/05/23 05:18:50;;;;;;;;;18.00;14.00;;;;;22.82;37.04;100730.06;110218;1264;18862;-49
2022/05/23 05:21:18;;;;;;;;;13.33;11.67;;;;;22.82;37.16;100734.51;110273;1264;18882;-52
2022/05/23 05:23:45;;;;;;;;;11.00;10.33;;;;;22.83;37.47;100730.30;110183;1264;19896;-48
2022/05/23 05:26:12;;;;;;;;;14.67;14.00;;;;;22.88;37.29;100734.20;110085;1265;18907;-49
2022/05/23 05:28:39;;;;;;;;;20.33;15.00;;;;;22.67;35.55;100729.71;110203;1264;18991;-47
2022/05/23 05:31:07;;;;;;;;;17.00;14.50;;;;;22.54;35.78;100730.41;110117;1264;19653;-49
2022/05/23 05:33:35;;;;;;;;;13.00;13.00;;;;;22.65;36.38;100732.33;110252;1264;22253;-49
2022/05/23 05:36:02;;;;;;;;;15.00;13.00;;;;;22.81;36.55;100728.58;110241;1264;18977;-48
2022/05/23 05:38:30;;;;;;;;;14.00;12.00;;;;;22.92;36.32;100731.52;110180;1264;19654;-48
2022/05/23 05:40:57;;;;;;;;;17.00;14.33;;;;;23.04;36.56;100730.48;109982;1266;205976;-49
2022/05/23 05:43:25;;;;;;;;;11.67;11.00;;;;;23.11;36.55;100729.73;110159;1264;18154;-48
2022/05/23 05:45:52;;;;;;;;;14.33;13.00;;;;;23.15;36.48;100727.96;110212;1264;19548;-47
2022/05/23 05:48:19;;;;;;;;;15.00;13.00;;;;;23.18;36.51;100731.62;110301;1264;18774;-47
2022/05/23 05:50:46;;;;;;;;;13.00;10.00;;;;;23.20;36.65;100726.39;110123;1265;19182;-49
2022/05/23 05:53:14;;;;;;;;;11.00;10.50;;;;;23.23;36.90;100728.40;110236;1264;22841;-49
2022/05/23 05:55:41;;;;;;;;;14.50;14.00;;;;;23.29;37.20;100722.77;110205;1263;18912;-48
2022/05/23 05:58:08;;;;;;;;;12.00;11.67;;;;;23.33;37.44;100728.13;110253;1263;18905;-49
2022/05/23 06:00:35;;;;;;;;;15.00;13.33;;;;;23.40;37.80;100733.34;110228;1264;19517;-52
2022/05/23 06:03:03;;;;;;;;;15.00;14.33;;;;;23.44;37.94;100741.38;110133;1267;22769;-49
2022/05/23 06:05:30;;;;;;;;;13.33;12.00;;;;;23.43;37.86;100739.89;110276;1264;18940;-48
2022/05/23 06:13:47;;;;;;;;;17.67;15.00;;;;;23.32;37.92;100742.21;110256;1264;18939;-49
2022/05/23 06:16:14;;;;;;;;;14.00;13.33;;;;;23.24;37.60;100745.98;110228;1264;19618;-49
2022/05/23 06:18:42;;;;;;;;;14.00;13.00;;;;;23.13;37.39;100748.95;110177;1264;18797;-49
2022/05/23 06:21:09;;;;;;;;;15.00;15.00;;;;;23.10;37.50;100749.95;110302;1263;19008;-52
2022/05/23 06:23:37;;;;;;;;;15.00;14.33;;;;;23.14;37.41;100751.17;110292;1264;19511;-49
2022/05/23 06:26:04;;;;;;;;;17.00;15.00;;;;;23.09;37.10;100750.56;110227;1264;18755;-50
2022/05/23 06:28:31;;;;;;;;;15.67;15.00;;;;;22.98;36.98;100754.31;110282;1264;19362;-48
2022/05/23 06:30:59;;;;;;;;;16.00;15.67;;;;;22.82;36.99;100756.92;110267;1264;19588;-49
2022/05/23 06:33:27;;;;;;;;;14.33;13.67;;;;;22.64;37.41;100758.77;110305;1264;18774;-49
2022/05/23 06:35:54;;;;;;;;;18.33;15.00;;;;;22.48;37.61;100760.46;110238;1264;18856;-49
2022/05/23 06:38:22;;;;;;;;;18.00;15.67;;;;;22.45;37.70;100762.88;110217;1264;19569;-56
2022/05/23 06:40:50;;;;;;;;;17.00;15.00;;;;;22.39;37.58;100771.48;110237;1263;18984;-50
2022/05/23 06:43:17;;;;;;;;;17.33;15.67;;;;;22.37;37.58;100770.16;110272;1263;23137;-50
2022/05/23 06:45:44;;;;;;;;;14.67;14.33;;;;;22.36;38.02;100775.30;110269;1264;19668;-49
2022/05/23 06:48:12;;;;;;;;;19.00;15.67;;;;;22.39;38.36;100775.80;110326;1264;19470;-49
2022/05/23 06:50:39;;;;;;;;;13.67;13.00;;;;;22.37;37.87;100773.34;110267;1264;22087;-49
2022/05/23 06:53:06;;;;;;;;;17.67;15.00;;;;;22.47;37.76;100773.51;110252;1264;19578;-49
2022/05/23 06:55:33;;;;;;;;;17.50;14.00;;;;;22.47;37.45;100770.67;110241;1264;18766;-50
2022/05/23 06:58:01;;;;;;;;;16.00;14.33;;;;;22.45;37.21;100771.41;110231;1264;18816;-53
2022/05/23 07:00:28;;;;;;;;;14.33;14.00;;;;;22.50;37.03;100771.60;110320;1264;19521;-48
2022/05/23 07:02:55;;;;;;;;;11.00;11.00;;;;;22.53;36.77;100772.87;110182;1264;18783;-49
2022/05/23 07:13:52;;;;;;;;;12.50;11.00;;;;;22.27;36.22;100765.29;109709;1268;18795;-48
2022/05/23 07:16:20;;;;;;;;;12.00;11.33;;;;;22.27;35.94;100764.54;109533;1268;20002;-50
2022/05/23 07:18:47;;;;;;;;;13.00;11.00;;;;;22.38;36.17;100765.94;109538;1269;18918;-49
2022/05/23 07:21:15;;;;;;;;;11.50;9.50;;;;;22.48;35.71;100768.02;109581;1269;18861;-49
2022/05/23 07:23:42;;;;;;;;;12.67;11.33;;;;;22.40;35.17;100764.77;109530;1269;23785;-49
2022/05/23 07:26:10;;;;;;;;;11.33;10.67;;;;;22.32;35.20;100762.05;109505;1269;18891;-47
2022/05/23 07:28:37;;;;;;;;;11.33;9.33;;;;;22.28;35.12;100756.61;109468;1269;19675;-49
2022/05/23 07:31:04;;;;;;;;;9.00;9.00;;;;;22.38;34.53;100753.88;109527;1269;22039;-48
2022/05/23 07:33:32;;;;;;;;;10.00;9.00;;;;;22.37;34.22;100752.73;109615;1270;18791;-49
2022/05/23 07:35:59;;;;;;;;;10.67;10.67;;;;;22.33;34.46;100756.20;109486;1269;22208;-50
2022/05/23 07:38:27;;;;;;;;;7.00;7.00;;;;;22.41;34.20;100758.29;109481;1270;19508;-51
2022/05/23 07:40:55;;;;;;;;;9.33;9.33;;;;;22.48;34.44;100746.19;110201;1264;21053;-48
2022/05/23 07:43:22;;;;;;;;;7.00;7.00;;;;;22.57;34.27;100746.13;110166;1264;18854;-50
2022/05/23 07:45:49;;;;;;;;;9.00;9.00;;;;;22.59;33.92;100747.63;110156;1264;19535;-50
2022/05/23 07:48:16;;;;;;;;;9.00;9.00;;;;;22.59;33.81;100744.55;110277;1264;18455;-50
2022/05/23 07:50:44;;;;;;;;;12.00;9.00;;;;;22.60;33.78;100738.91;110198;1264;20719;-44
2022/05/23 08:01:27;;;;;;;;;10.67;10.00;;;;;22.40;33.54;100733.48;110255;1262;19500;-49
2022/05/23 08:03:55;;;;;;;;;9.00;9.00;;;;;22.24;33.47;100734.13;110230;1264;19386;-49
2022/05/23 08:06:22;;;;;;;;;8.67;8.00;;;;;22.08;33.12;100726.98;110329;1264;18702;-48
2022/05/23 08:08:49;;;;;;;;;9.00;7.00;;;;;21.89;32.86;100723.05;110286;1263;19660;-48
2022/05/23 08:11:17;;;;;;;;;9.00;9.00;;;;;22.07;32.97;100727.39;110241;1263;18500;-49
2022/05/23 08:13:47;;;;;;;;;7.33;7.33;;;;;22.29;32.58;100724.97;110200;1263;18714;-49
2022/05/23 08:16:14;;;;;;;;;6.67;6.67;;;;;22.42;32.24;100720.06;110301;1262;19657;-49
2022/05/23 08:18:41;;;;;;;;;6.67;6.67;;;;;22.38;32.28;100725.10;110295;1264;19922;-50
2022/05/23 08:21:09;;;;;;;;;7.00;7.00;;;;;22.50;32.04;100721.86;110278;1262;19166;-48
2022/05/23 08:23:36;;;;;;;;;7.33;7.33;;;;;22.25;31.54;100722.24;110254;1264;19965;-49
2022/05/23 08:26:03;;;;;;;;;8.00;7.00;;;;;22.18;31.53;100725.43;110184;1263;18431;-50
2022/05/23 08:28:30;;;;;;;;;6.00;6.00;;;;;22.29;31.68;100725.58;110257;1264;19251;-51
2022/05/23 08:30:58;;;;;;;;;7.00;7.00;;;;;22.40;31.50;100722.38;110254;1262;19668;-48
2022/05/23 08:33:26;;;;;;;;;6.00;5.67;;;;;22.52;31.52;100726.13;110304;1264;23216;-49
2022/05/23 08:35:53;;;;;;;;;7.33;7.00;;;;;22.54;31.36;100718.92;110248;1262;18802;-48
2022/05/23 08:38:20;;;;;;;;;7.00;6.33;;;;;22.55;31.24;100717.64;110348;1262;19673;-47
2022/05/23 08:40:48;;;;;;;;;10.00;9.00;;;;;22.60;31.42;100715.95;110232;1262;18999;-49
2022/05/23 08:43:17;;;;;;;;;7.33;6.00;;;;;22.74;31.26;100708.38;110249;1264;18863;-50
2022/05/23 08:45:44;;;;;;;;;7.00;7.00;;;;;22.78;31.20;100702.89;110289;1263;19725;-49
2022/05/23 08:48:12;;;;;;;;;6.00;6.00;;;;;22.70;30.90;100698.46;110308;1264;18652;-49
2022/05/23 08:50:40;;;;;;;;;6.67;6.67;;;;;22.60;30.85;100697.50;110279;1262;19698;-49
2022/05/23 08:53:08;;;;;;;;;6.33;6.00;;;;;22.59;30.70;100689.18;110240;1262;22705;-47
2022/05/23 08:55:35;;;;;;;;;6.00;6.00;;;;;22.62;30.59;100686.60;110267;1262;20587;-48
2022/05/23 08:58:03;;;;;;;;;9.00;7.00;;;;;22.58;30.58;100683.86;110268;1262;19019;-48
2022/05/23 09:00:30;;;;;;;;;6.00;6.00;;;;;22.68;30.73;100678.42;110310;1264;22705;-49
2022/05/23 09:02:58;;;;;;;;;8.33;7.00;;;;;22.79;30.72;100680.58;110278;1263;18359;-48
2022/05/23 09:05:29;;;;;;;;;6.00;6.00;;;;;22.92;30.74;100678.88;110296;1262;18898;-50
2022/05/23 09:07:56;;;;;;;;;6.67;6.67;;;;;23.03;30.62;100682.08;110296;1261;19575;-47
2022/05/23 09:10:23;;;;;;;;;6.00;6.00;;;;;23.04;30.69;100675.81;110299;1262;18655;-50
2022/05/23 09:12:50;;;;;;;;;8.33;6.00;;;;;23.04;30.73;100675.44;110226;1263;18931;-49
2022/05/23 09:15:18;;;;;;;;;6.00;6.00;;;;;23.01;30.77;100675.48;110233;1264;19499;-49
2022/05/23 09:17:45;;;;;;;;;7.00;7.00;;;;;23.07;31.13;100680.11;110177;1264;20054;-48
2022/05/23 09:20:12;;;;;;;;;7.00;7.00;;;;;22.92;31.64;100681.14;110267;1262;18832;-48
2022/05/23 09:22:43;;;;;;;;;7.00;7.00;;;;;22.80;31.71;100678.66;110258;1264;19668;-50
2022/05/23 09:25:11;;;;;;;;;5.67;5.67;;;;;22.61;31.47;100671.49;110332;1262;18555;-49
2022/05/23 09:27:39;;;;;;;;;7.00;7.00;;;;;22.64;31.19;100671.95;110294;1262;19084;-49
2022/05/23 09:30:06;;;;;;;;;8.33;6.67;;;;;22.63;30.96;100671.94;110275;1262;19653;-51
2022/05/23 09:32:33;;;;;;;;;9.00;7.50;;;;;22.71;30.78;100668.39;110288;1262;18540;-48
2022/05/23 09:35:00;;;;;;;;;5.67;5.67;;;;;22.84;30.73;100659.34;110218;1262;22761;-50
2022/05/23 09:37:28;;;;;;;;;7.00;6.00;;;;;22.95;30.54;100654.39;110269;1262;23203;-50
2022/05/23 09:39:55;;;;;;;;;6.00;6.00;;;;;23.03;30.64;100652.17;110329;1262;22785;-49
2022/05/23 09:47:55;;;;;;;;;6.67;6.67;;;;;23.16;30.23;100643.85;110286;1261;18708;-49
2022/05/23 09:50:22;;;;;;;;;6.00;6.00;;;;;23.07;30.01;100636.60;110281;1262;18997;-49
2022/05/23 09:52:49;;;;;;;;;6.00;6.00;;;;;22.59;29.93;100638.09;110340;1262;19527;-48
2022/05/23 09:55:16;;;;;;;;;6.50;6.00;;;;;22.51;30.14;100635.64;110245;1263;18413;-48
2022/05/23 09:57:43;;;;;;;;;6.00;6.00;;;;;22.71;30.13;100636.21;110264;1263;19035;-50
2022/05/23 10:00:11;;;;;;;;;6.00;6.00;;;;;22.67;30.14;100632.55;110254;1264;19944;-47
2022/05/23 10:02:38;;;;;;;;;6.00;6.00;;;;;22.81;30.16;100628.87;110279;1262;18540;-48
2022/05/23 10:05:05;;;;;;;;;6.00;6.00;;;;;22.96;30.06;100627.21;110248;1264;18752;-49
2022/05/23 10:07:32;;;;;;;;;5.00;5.00;;;;;22.98;29.91;100620.63;110226;1262;20676;-49
2022/05/23 10:10:00;;;;;;;;;5.00;5.00;;;;;23.04;29.92;100617.41;110242;1262;19358;-47
2022/05/23 10:12:28;;;;;;;;;6.00;6.00;;;;;23.12;29.73;100610.04;110306;1261;18988;-49
2022/05/23 10:14:55;;;;;;;;;6.67;6.00;;;;;23.13;29.66;100606.88;110214;1262;22829;-47
2022/05/23 10:17:22;;;;;;;;;7.00;7.00;;;;;23.13;29.87;100604.37;110081;1262;18386;-48
2022/05/23 10:19:49;;;;;;;;;7.00;7.00;;;;;23.13;29.53;100598.09;110110;1262;19910;-47
2022/05/23 10:22:17;;;;;;;;;6.00;6.00;;;;;23.05;29.36;100600.03;110157;1262;20101;-47
2022/05/23 10:24:44;;;;;;;;;6.00;6.00;;;;;22.97;29.24;100602.45;110279;1262;18814;-51
2022/05/23 10:27:11;;;;;;;;;9.00;7.00;;;;;22.64;29.17;100597.90;110287;1262;19039;-48
2022/05/23 10:29:39;;;;;;;;;5.50;5.50;;;;;22.58;28.93;100592.08;110224;1262;22896;-49
2022/05/23 10:32:07;;;;;;;;;6.00;6.00;;;;;22.62;29.12;100591.54;110225;1264;18537;-49
2022/05/23 10:34:34;;;;;;;;;6.00;6.00;;;;;22.64;28.76;100589.66;110167;1264;19065;-49
2022/05/23 10:37:02;;;;;;;;;5.00;5.00;;;;;22.76;28.94;100593.36;110308;1264;19564;-48
2022/05/23 10:42:15;;;;;;;;;6.00;6.00;;;;;22.74;28.64;100588.84;110320;1264;19156;-48
2022/05/23 10:44:42;;;;;;;;;6.00;6.00;;;;;22.71;28.73;100590.11;110247;1264;19488;-49
2022/05/23 10:47:09;;;;;;;;;7.00;6.00;;;;;22.75;28.82;100589.95;110290;1264;18667;-48
2022/05/23 10:49:36;;;;;;;;;6.00;6.00;;;;;22.72;28.81;100587.10;110206;1264;19351;-49
2022/05/23 10:52:04;;;;;;;;;5.00;5.00;;;;;22.64;28.66;100580.89;110196;1264;20914;-48
2022/05/23 10:54:31;;;;;;;;;6.00;6.00;;;;;22.57;28.35;100577.82;110254;1264;18614;-50
2022/05/23 10:56:59;;;;;;;;;6.00;6.00;;;;;22.15;28.59;100578.63;110281;1264;22527;-50
2022/05/23 10:59:26;;;;;;;;;6.00;6.00;;;;;21.73;29.23;100576.38;110151;1263;19623;-48
2022/05/23 11:01:53;;;;;;;;;6.67;6.00;;;;;21.74;29.94;100571.37;110068;1264;19025;-47
2022/05/23 11:04:21;;;;;;;;;6.00;6.00;;;;;22.07;29.71;100564.39;110089;1263;24359;-48
2022/05/23 11:06:48;;;;;;;;;8.00;6.00;;;;;22.02;29.55;100566.27;110103;1262;19539;-47
2022/05/23 11:09:15;;;;;;;;;8.00;8.00;;;;;21.76;30.02;100568.27;110286;1264;18465;-49
2022/05/23 11:11:42;;;;;;;;;8.00;7.00;;;;;21.89;30.05;100567.17;110221;1263;18800;-49
2022/05/23 11:14:09;;;;;;;;;6.00;6.00;;;;;22.18;29.99;100564.32;110160;1264;19652;-52
2022/05/23 11:16:37;;;;;;;;;8.00;6.67;;;;;22.36;29.85;100561.69;110300;1264;18483;-49
2022/05/23 11:19:04;;;;;;;;;6.33;6.33;;;;;22.48;29.79;100564.43;110269;1264;18704;-49
2022/05/23 11:21:31;;;;;;;;;8.67;6.67;;;;;22.51;29.77;100558.58;110339;1264;19860;-48
2022/05/23 11:23:58;;;;;;;;;6.00;6.00;;;;;22.61;30.00;100557.31;110236;1264;18497;-49
2022/05/23 11:26:26;;;;;;;;;9.33;6.67;;;;;22.74;30.27;100560.42;110261;1263;19483;-48
2022/05/23 11:34:23;;;;;;;;;9.33;9.00;;;;;22.11;30.90;100552.05;110285;1264;18676;-49
2022/05/23 11:37:09;;;;;;;;;8.00;6.00;;;;;22.26;31.02;100552.81;110095;1263;19478;-48
2022/05/23 11:39:36;;;;;;;;;9.33;9.33;;;;;22.41;30.90;100551.25;110207;1264;18462;-49
2022/05/23 11:42:03;;;;;;;;;7.00;7.00;;;;;22.32;30.61;100547.69;110265;1264;21093;-49
2022/05/23 11:44:30;;;;;;;;;11.67;10.33;;;;;22.32;30.77;100549.08;110259;1263;19513;-50
2022/05/23 11:46:59;;;;;;;;;6.00;6.00;;;;;22.23;30.62;100545.52;110304;1262;18513;-48
2022/05/23 11:49:26;;;;;;;;;7.00;6.50;;;;;22.24;30.60;100540.19;110275;1264;19174;-49
2022/05/23 11:51:53;;;;;;;;;7.00;7.00;;;;;22.29;30.69;100538.27;110269;1264;21639;-50
2022/05/23 11:54:21;;;;;;;;;9.00;8.00;;;;;22.28;30.47;100537.06;110315;1264;18494;-49
2022/05/23 11:56:48;;;;;;;;;6.67;6.33;;;;;22.30;30.35;100537.53;110233;1264;21778;-49
2022/05/23 11:59:16;;;;;;;;;6.00;6.00;;;;;22.30;30.26;100532.29;110184;1264;19889;-49
2022/05/23 12:01:43;;;;;;;;;7.00;7.00;;;;;22.26;30.34;100532.96;110200;1264;18434;-51
2022/05/23 12:04:10;;;;;;;;;5.33;5.33;;;;;22.22;30.34;100528.37;110253;1264;19047;-49
2022/05/23 12:06:38;;;;;;;;;8.00;7.33;;;;;22.38;30.62;100524.81;110309;1264;19556;-50